• Join FlightAware (Why Join?)
  • Login
  • US Flag 
06:46PM EDT


 

Airport Tracker/Info


-or-


 

Live Flight TrackerFlight Track Log ✈ N449ND ✈ 15-Jun-2014 ✈ KFPR - KFPR

Flight Track Log - Related Links

Times and Time Zones

All times are in EDT time to prevent confusion due to time zone crossing. See the N449ND flight status page for this flight to view local times or setup timezone preferences in your user account.

Time Position Orientation Groundspeed Altitude Reporting Facility
EDT Latitude Longitude Course Direction KTS MPH feet Rate Location/Type
11:22AM 27.4972 -80.3547 152° Southeast 92 106 300  Level Miami Center
11:23AM 27.4794 -80.3469 159° South 74 85 900 540 Climbing Miami Center
11:24AM 27.4581 -80.3489 185° South 77 89 1,500 540 Climbing Miami Center
11:25AM 27.4342 -80.3503 183° South 78 90 2,100 480 Climbing Miami Center
11:26AM 27.4108 -80.3519 184° South 78 90 2,600 420 Climbing Miami Center
11:27AM 27.4975 -80.3726 152° Southeast  Level Estimated
11:27AM 27.3875 -80.3525 181° South 79 91 3,000  Level Miami Center
11:28AM 27.3603 -80.3522 179° South 89 102 3,000  Level Miami Center
11:29AM 27.3669 -80.3253 74° East 110 127 3,000  Level Miami Center
11:30AM 27.3978 -80.3386 339° North 109 125 3,000  Level Miami Center
11:31AM 27.4281 -80.3564 332° Northwest 113 130 3,000  Level Miami Center
11:32AM 27.4578 -80.3736 333° Northwest 113 130 3,000  Level Miami Center
11:33AM 27.4856 -80.3889 334° Northwest 114 131 3,000  Level Miami Center
11:35AM 27.5167 -80.4036 337° Northwest 116 133 3,000  Level Miami Center
11:36AM 27.5472 -80.4194 335° Northwest 116 133 3,000  Level Miami Center
11:37AM 27.5706 -80.4419 319° Northwest 121 139 3,000  Level Miami Center
11:38AM 27.5597 -80.4744 249° West 110 127 3,000  Level Miami Center
11:39AM 27.5619 -80.5108 274° West 111 128 3,000  Level Miami Center
11:40AM 27.5711 -80.5444 287° West 110 127 3,000 -240 Level Miami Center
11:41AM 27.5881 -80.5747 302° West 110 127 2,600 -600 Descending Miami Center
11:42AM 27.6108 -80.6003 315° West 110 127 1,800 -540 Descending Miami Center
11:43AM 27.6389 -80.6172 332° Northwest 110 127 1,600 -180 Descending Miami Center
11:44AM 27.6714 -80.6250 348° North 111 128 1,500 -60 Descending Miami Center
11:45AM 27.7019 -80.6211 North 114 131 1,500  Level Miami Center
11:46AM 27.7156 -80.5972 57° Northeast 103 119 1,500  Level Miami Center
11:47AM 27.7061 -80.5669 109° East 103 119 1,500 -60 Level Miami Center
11:48AM 27.6956 -80.5389 113° Southeast 97 112 1,400 -120 Descending Miami Center
11:49AM 27.6853 -80.5089 111° Southeast 97 112 1,300 -180 Descending Miami Center
11:50AM 27.6753 -80.4819 113° Southeast 91 105 1,100 -360 Descending Miami Center
11:51AM 27.6678 -80.4547 107° East 87 100 600 -300 Descending Miami Center
11:52AM 27.6592 -80.4308 112° Southeast 84 97 500 120 Descending Miami Center
11:53AM 27.6528 -80.4044 105° East 83 96 900 420 Climbing Miami Center
11:54AM 27.6506 -80.3789 96° East 85 98 1,400 480 Climbing Miami Center
11:55AM 27.6483 -80.3525 95° East 84 97 2,000 480 Climbing Miami Center
11:56AM 27.6447 -80.3250 98° East 84 97 2,500 480 Climbing Miami Center
11:57AM 27.6417 -80.2975 97° East 84 97 3,100 480 Climbing Miami Center
11:58AM 27.6394 -80.2700 95° East 84 97 3,600 420 Climbing Miami Center
11:59AM 27.6197 -80.2603 156° South 88 101 4,000 240 Climbing Miami Center
12:00PM 27.6072 -80.2917 246° West 108 124 4,100  Climbing Miami Center
12:01PM 27.5914 -80.3244 241° Southwest 109 125 4,000 -60 Descending Miami Center
12:03PM 27.5747 -80.3536 237° Southwest 108 124 4,000  Level Miami Center
12:04PM 27.5631 -80.3819 245° Southwest 106 122 4,000  Level Miami Center
12:05PM 27.5472 -80.4108 238° Southwest 105 121 4,000  Level Miami Center
12:06PM 27.5314 -80.4408 239° Southwest 105 121 4,100  Climbing Miami Center
12:07PM 27.5169 -80.4711 242° Southwest 105 121 4,100 -60 Level Miami Center
12:08PM 27.5008 -80.5003 238° Southwest 106 122 4,000 -60 Descending Miami Center
12:09PM 27.4881 -80.5297 244° Southwest 101 116 4,000  Level Miami Center
12:10PM 27.4722 -80.5586 238° Southwest 102 117 4,000  Level Miami Center
12:11PM 27.4575 -80.5872 240° Southwest 102 117 4,000  Level Miami Center
12:12PM 27.4431 -80.6153 240° Southwest 102 117 4,100  Climbing Miami Center
12:13PM 27.4281 -80.6444 240° Southwest 102 117 4,000  Descending Miami Center
12:14PM 27.4147 -80.6694 239° Southwest 98 113 4,100  Climbing Miami Center
12:15PM 27.4008 -80.6967 240° Southwest 98 113 4,100 -60 Level Miami Center
12:16PM 27.4172 -80.7081 328° Northwest 104 120 4,000 -60 Descending Miami Center
12:17PM 27.4336 -80.6836 53° Northeast 97 112 4,000  Level Miami Center
12:18PM 27.4181 -80.6908 202° Southwest 101 116 4,000  Level Miami Center
12:19PM 27.3986 -80.7108 222° Southwest 96 110 4,000  Level Miami Center
12:20PM 27.4200 -80.7125 356° North 100 115 4,000  Level Miami Center
12:21PM 27.4403 -80.6911 43° Northeast 97 112 4,000  Level Miami Center
12:22PM 27.4411 -80.6683 88° East 96 110 4,000  Level Miami Center
12:23PM 27.4211 -80.6842 215° Southwest 91 105 4,100  Climbing Miami Center
12:24PM 27.3986 -80.7042 218° Southwest 97 112 4,000 -480 Descending Miami Center
12:25PM 27.3772 -80.7278 224° Southwest 99 114 3,100 -960 Descending Miami Center
12:26PM 27.3575 -80.7517 227° Southwest 99 114 2,100 -720 Descending Miami Center
12:27PM 27.3375 -80.7719 222° Southwest 96 110 1,700 -300 Descending Miami Center
12:28PM 27.3183 -80.7925 224° Southwest 95 109 1,500 -240 Descending Miami Center
12:30PM 27.3003 -80.8128 225° Southwest 91 105 1,300 -60 Descending Miami Center
12:31PM 27.2800 -80.8356 225° Southwest 97 112 1,400  Climbing Miami Center
12:32PM 27.2600 -80.8567 223° Southwest 97 112 1,400 240 Level Miami Center
12:33PM 27.2425 -80.8753 223° Southwest 94 108 2,000 420 Climbing Miami Center
12:34PM 27.2239 -80.9006 230° Southwest 99 114 2,300 360 Climbing Miami Center
12:35PM 27.2019 -80.9083 197° South 85 98 2,800 360 Climbing Miami Center
12:36PM 27.2136 -80.8819 64° Northeast 97 112 3,100 60 Climbing Miami Center
12:37PM 27.2386 -80.8608 37° Northeast 104 120 3,000 -60 Descending Miami Center
12:38PM 27.2622 -80.8383 40° Northeast 107 123 3,000  Level Miami Center
12:39PM 27.2867 -80.8183 36° Northeast 105 121 3,100  Climbing Miami Center
12:40PM 27.3097 -80.7969 39° Northeast 105 121 3,000  Descending Miami Center
12:41PM 27.3319 -80.7747 42° Northeast 105 121 3,100  Climbing Miami Center
12:42PM 27.3567 -80.7542 36° Northeast 104 120 3,000 -60 Descending Miami Center
12:43PM 27.3800 -80.7319 40° Northeast 105 121 3,000  Level Miami Center
12:44PM 27.4019 -80.7125 38° Northeast 105 121 3,000 -180 Level Miami Center
12:45PM 27.4308 -80.7022 18° North 111 128 2,700 -480 Descending Miami Center
12:46PM 27.4619 -80.7086 350° North 113 130 2,100 -240 Descending Miami Center
12:47PM 27.4922 -80.7142 351° North 110 127 2,200  Climbing Miami Center
12:48PM 27.5233 -80.7178 354° North 105 121 2,100 -60 Descending Miami Center
12:49PM 27.5439 -80.7047 29° Northeast 108 124 2,100  Level Miami Center
12:50PM 27.5281 -80.6792 125° Southeast 100 115 2,100  Level Miami Center
12:51PM 27.5142 -80.6497 118° Southeast 99 114 2,100  Level Miami Center
12:52PM 27.5000 -80.6203 118° Southeast 99 114 2,100 -60 Level Miami Center
12:53PM 27.4989 -80.5869 92° East 104 120 2,000 -120 Descending Miami Center
12:54PM 27.4992 -80.5539 89° East 102 117 1,900 -60 Descending Miami Center
12:55PM 27.4992 -80.5239 90° East 97 112 1,900  Level Miami Center
12:57PM 27.4986 -80.4931 91° East 96 110 1,900 -300 Level Miami Center
12:58PM 27.4981 -80.4636 91° East 97 112 1,400 -480 Descending Miami Center
12:59PM 27.4972 -80.4319 92° East 100 115 900 -480 Descending Miami Center
01:00PM 27.4975 -80.4017 89° East 97 112 400 -540 Descending Miami Center
01:02PM 27.5184 -80.3877 31° Northeast  Level FlightAware Approximate
01:09PM 27.5963 -80.3358 31° Northeast  Level FlightAware Approximate
01:10PM 27.6066 -80.3300 24° Northeast  Level FlightAware Approximate
01:11PM 27.6185 -80.3241 24° Northeast  Level FlightAware Approximate
01:12PM 27.6303 -80.3182 24° Northeast  Level FlightAware Approximate
01:13PM 27.6276 -80.3253 233° Southwest  Level FlightAware Approximate
01:14PM 27.6199 -80.3370 233° Southwest  Level FlightAware Approximate
01:15PM 27.6121 -80.3486 233° Southwest  Level FlightAware Approximate
01:16PM 27.6044 -80.3603 233° Southwest  Level FlightAware Approximate
01:17PM 27.5966 -80.3719 233° Southwest  Level FlightAware Approximate
01:18PM 27.5889 -80.3836 233° Southwest  Level FlightAware Approximate
01:19PM 27.5811 -80.3952 233° Southwest  Level FlightAware Approximate
01:20PM 27.5734 -80.4069 233° Southwest  Level FlightAware Approximate
01:21PM 27.5656 -80.4185 233° Southwest  Level FlightAware Approximate
01:22PM 27.5578 -80.4302 233° Southwest  Level FlightAware Approximate
01:23PM 27.5501 -80.4418 233° Southwest  Level FlightAware Approximate
01:24PM 27.5423 -80.4534 233° Southwest  Level FlightAware Approximate
01:25PM 27.5346 -80.4651 233° Southwest  Level FlightAware Approximate
01:26PM 27.5268 -80.4767 233° Southwest  Level FlightAware Approximate
01:27PM 27.5190 -80.4884 233° Southwest  Level FlightAware Approximate
01:28PM 27.5113 -80.5000 233° Southwest  Level FlightAware Approximate
01:29PM 27.5035 -80.5116 233° Southwest  Level FlightAware Approximate
01:30PM 27.4958 -80.5233 233° Southwest  Level FlightAware Approximate
01:31PM 27.4880 -80.5349 233° Southwest  Level FlightAware Approximate
01:32PM 27.4802 -80.5465 233° Southwest  Level FlightAware Approximate
01:33PM 27.4725 -80.5582 233° Southwest  Level FlightAware Approximate
01:34PM 27.4647 -80.5698 233° Southwest  Level FlightAware Approximate
01:35PM 27.4569 -80.5814 233° Southwest  Level FlightAware Approximate
01:36PM 27.4492 -80.5930 233° Southwest  Level FlightAware Approximate
01:37PM 27.4414 -80.6046 233° Southwest  Level FlightAware Approximate